Norfolk International Airport
KORF : now visible

Airfield :











YOU CAN JOIN US ON...

 
LOGIN :

Register | Disclaimer

   EN    FR    IT 

 









Legend :    VFR   Marginal VFR   IFR   Intensive IFR   Very Intensive IFR
Visi :
Ceiling :
>= 8 km
>= 3000ft
5 to 8 km
1000 to 3000 ft
1500m to 5 km
500 to 1000 ft
800 to 1500m
200 to 500 ft
< 800m
< 200 ft
Symbols :   Thunderstorms  Fog  Heavy snow  Heavy precipitations  Wind > 20 kt







- Airport Elevation : 26 ft
- IATA code : ORF


KORF - Norfolk International

CURRENT METAR :
  • 210507Z VRB05KT 1SM R05/5500VP6000FT BR OVC002 07/07 A3003 RMK AO2 T00720067

EXPIRED METARs :
  • 210451Z 27006KT 3/4SM R05/4000V5000FT BR VV002 07/07 A3005 RMK AO2 SLP175 T00720072 401220028
  • 210432Z 30005KT 1/2SM R05/3000V4500FT FG VV002 07/07 A3002 RMK AO2 T00720072
  • 210418Z 23005KT 1 3/4SM R05/5000VP6000FT BR OVC002 07/07 A3003 RMK AO2 T00720067
  • 210400Z 21003KT 4SM BR OVC002 07/07 A3000 RMK AO2 T00720067
  • 210351Z 21003KT 5SM BR OVC004 07/07 A3000 RMK AO2 SLP158 T00670067
  • 210335Z 16009KT 6SM BR OVC005 07/07 A3002 RMK AO2 PRESFR T00670067
  • 210251Z 27003KT 3SM BR OVC004 07/07 A3011 RMK AO2 RAE34 PRESFR SLP196 P0003 60004 T00720067 56005
  • 210227Z VRB05G15KT 3SM -RA BR OVC003 08/07 A3014 RMK AO2 P0002 T00780072

TAF KORF
Valid from the 21 at 06:00 until the 22 at 06:00 UTC


210520Z 2106/2206 VRB05KT 1SM BR OVC002
FM210800 24004KT 1 1/2SM SHRA BR OVC004 WS020/25040KT
FM211600 26007KT 2SM -SHRA OVC004
FM212100 02005KT 3SM BR OVC004
FM220000 02005KT P6SM OVC010
KZDC FIR / North America



MET'MAP, your aeronautical weather chart ! - Copyright ORBIFLY December 2007 - Disclaimer

ORBIFLY MET'MAP TEAM :

Programming & Development : Alexandra Zaïnal
Concept & Development : Baudouin d'Aumeries
Co-Development & Prog : Marc-Olivier Méhu
Technical & hardware support : Manuel Goepfert

Contact : metmap@orbifly.com




SOURCES & CREDITS :

   NOAA       Earth
Advisory